Terminal Aerodrome Forecast
Issued by NWS Boston, MA

Current Version | Previous Version | Text Only | Print | Product List | Glossary On
Versions: 1 2 3 4 5 6 7 8 9 10 11 12 13 14 15 16 17 18 19 20
000 FTUS41 KBOX 262329 TAFORH TAF KORH 262329Z 2700/2724 20005KT P6SM BKN060 FM270300 21006KT P6SM SCT200 FM271200 24008KT P6SM BKN100 FM271500 24009KT P6SM VCSH BKN035=

USA.gov is the U.S. government's official web portal to all federal, state and local government web resources and services.